Tiempo atmosférico en la estación meteorológica de San Fernando, Cádiz (28 m.)



Fecha
DESCASC
Temp. máxima en grados centígrados (hora)
DESCASC
Temp. mínima en grados centígrados (hora)
DESCASC
Temp. media en grados centígrados
DESCASC
Racha de viento máxima en m/sg (hora)
DESCASC
Velocidad máxima media en intervalos de 10 minutos(hora)
DESCASC
Precipitaciones diarias en mm
DESCASC
Precipitaciones de 00:00 a 06:00 en mm
DESCASC
Precipitaciones de 06:00 a 12:00 en mm
DESCASC
Precipitaciones de 12:00 a 18:00 en mm
DESCASC
Precipitaciones de 18:00 a 24:00 en mm
DESCASC
29-03-2020 19.8 (14:30) 11.4 (07:50) 15.6 7.78 (14:50) 4.44 (14:40) 0 0 0 0 0
28-03-2020 18.8 (15:30) 10.3 (04:40) 14.5 7.5 (15:00) 3.61 (16:10) 0 0 0 0 0
27-03-2020 17.5 (15:10) 11.9 (23:59) 14.7 7.78 (17:20) 4.72 (01:00) 0 0 0 0 0
26-03-2020 18.4 (16:30) 10.6 (00:00) 14.5 10.28 (18:10) 6.67 (17:20) 0 0 0 0 0
25-03-2020 20 (16:50) 12.2 (00:00) 16.1 10 (11:30) 5 (11:20) 0 0 0 0 0
24-03-2020 15 (17:40) 11.1 (00:00) 13.1 8.06 (02:00) 3.61 (11:40) 8.5 0.1 6.7 1.7 0
23-03-2020 18.7 (12:30) 9.5 (00:00) 14.1 8.89 (18:00) 4.17 (10:40) 0 0 0 0 0
22-03-2020 16.2 (14:50) 9.5 (07:50) 12.9 8.89 (00:10) 5.28 (00:10) 2.8 2.7 0.1 0 0
21-03-2020 15.8 (10:40) 11.9 (00:00) 13.8 15 (13:30) 7.22 (17:10) 12.1 0.9 3.7 6.4 1.1
20-03-2020 19.3 (16:00) 12.3 (00:00) 15.8 14.44 (15:00) 7.22 (14:00) 21.5 4.6 0.4 0 16.5
19-03-2020 19.2 (14:20) 15.4 (00:00) 17.3 18.33 (16:10) 9.17 (12:40) 0 0 0 0 0
18-03-2020 20.9 (14:20) 12.7 (00:00) 16.8 26.11 (11:10) 11.67 (11:30) 17.3 17.2 0.1 0 0
17-03-2020 17.5 (15:10) 8.2 (00:00) 12.8 13.33 (14:40) 6.94 (15:20) 52.3 0.1 38 0.1 14.1
16-03-2020 16.4 (17:00) 10.1 (00:00) 13.3 12.22 (14:40) 8.06 (14:30) 0 0 0 0 0
15-03-2020 23.6 (13:40) 14 (00:00) 18.8 9.72 (10:40) 5.56 (10:40) 0 0 0 0 0
14-03-2020 20 (16:10) 11.9 (00:00) 15.9 6.39 (14:10) 3.61 (23:20) 0 0 0 0 0
13-03-2020 19 (15:00) 14.6 (23:59) 16.8 6.67 (16:30) 3.61 (13:50) 0 0 0 0 0
12-03-2020 19.9 (14:30) 14.3 (00:00) 17.1 7.22 (14:50) 3.89 (14:50) 0 0 0 0 0
11-03-2020 27.5 (15:00) 15.3 (00:00) 21.4 13.61 (10:40) 7.5 (10:30) 0 0 0 0 0
10-03-2020 26.3 (16:10) 12.4 (00:00) 19.3 10.56 (20:10) 5.28 (18:10) 0 0 0 0 0
09-03-2020 19.5 (12:50) 11.4 (00:00) 15.4 8.33 (17:20) 5.28 (16:50) 0 0 0 0 0
08-03-2020 20.6 (14:10) 9.4 (00:00) 15 6.67 (18:40) 4.17 (18:40) 0 0 0 0 0
07-03-2020 22.5 (17:10) 8.4 (00:00) 15.4 8.33 (09:20) 3.89 (09:20) 0 0 0 0 0
06-03-2020 16.9 (16:10) 11.8 (00:00) 14.3 12.22 (01:20) 7.5 (01:20) 0 0 0 0 0
05-03-2020 17.1 (13:00) 13.6 (00:00) 15.4 12.78 (23:10) 8.33 (23:20) 0 0 0 0 0
04-03-2020 18.2 (16:40) 14.9 (00:00) 16.6 8.89 (15:40) 5.56 (17:30) 0 0 0 0 0
03-03-2020 17.9 (17:10) 10.7 (00:00) 14.3 8.89 (17:10) 5.83 (18:50) 0 0 0 0 0
02-03-2020 18.8 (13:40) 15.8 (00:00) 17.3 12.78 (16:20) 8.61 (14:40) 0.1 0 0.1 0 0
01-03-2020 18.9 (15:50) 14.8 (00:00) 16.8 8.61 (16:20) 5.28 (16:20) 0.1 0.1 0 0 0
29-02-2020 18.1 (15:20) 11.9 (00:00) 15 11.94 (23:40) 5.83 (23:20) 1.3 0 0 0 1.3

Gráficas

Temp. máximas Temp. mínimas Temp. medias Precipitaciones Rachas de viento máximas Velocidades máximas media en intervalos de 10 minutos

Datos horarios

Fecha y hora oficial Temperatura (ºC) Velocidad del viento (km/h) Dirección del viento Racha (km/h) Dirección de racha Precipitación (mm) Presión (hPa) Tendencia (hPa) Humedad (%)
2020-03-29 23:00:00 14.7 3 Sur 10 Sur 0 1013.5 0.2 74
2020-03-29 22:00:00 15 5 Sudoeste 10 Sur 0 1013.4 0 70
2020-03-29 21:00:00 15.5 7 Sudoeste 19 Sudoeste 0 1013.1 -0.1 70
2020-03-29 20:00:00 16.6 7 Sudoeste 18 Sudoeste 0 1013.3 -0.5 69
2020-03-29 19:00:00 16.7 10 Sudoeste 21 Sudoeste 0 1013.4 -0.6 70
2020-03-29 18:00:00 17.5 7 Sudoeste 26 Sudoeste 0 1013.2 -1.3 63
2020-03-29 17:00:00 18.6 14 Sudoeste 28 Sudoeste 0 1013.8 -1 58
2020-03-29 16:00:00 18.1 16 Sudoeste 27 Sudoeste 0 1014 -1.3 60
2020-03-29 15:00:00 18.5 14 Sudoeste 28 Sudoeste 0 1014.5 -1.2 58
2020-03-29 14:00:00 18.3 7 Sudoeste 21 Sur 0 1014.8 -0.8 60
2020-03-29 13:00:00 19.3 5 Sur 17 Este 0 1015.3 -0.1 58
2020-03-29 12:00:00 18.9 10 Este 23 Sudeste 0 1015.7 0.6 61
2020-03-29 11:00:00 16.7 11 Este 22 Este 0 1015.6 1 70
2020-03-29 10:00:00 13.5 11 Este 23 Este 0 1015.4 1.3 81
2020-03-29 09:00:00 11.7 12 Este 19 Este 0 1015.1 1 85
2020-03-29 08:00:00 11.4 12 Este 20 Este 0 1014.6 0.2 84
2020-03-29 07:00:00 11.9 12 Este 22 Este 0 1014.1 -0.6 83
2020-03-29 06:00:00 12.1 12 Este 21 Este 0 1014.1 -1 82
2020-03-29 05:00:00 12.3 9 Este 23 Este 0 1014.4 -1 81
2020-03-29 03:00:00 12.7 11 Este 24 Este 0 1015.1 -0.3 81
2020-03-29 01:00:00 13 10 Este 23 Este 0 1015.4 0.4 80
2020-03-29 00:00:00 13.1 11 Este 24 Este 0 1015.5 1.1 80
2020-03-28 23:00:00 13.3 13 Este 24 Sudeste 0 1015.4 1.8 78
2020-03-28 22:00:00 13.6 13 Este 26 Sudeste 0 1015 1.8 76
2020-03-28 21:00:00 14.1 9 Este 24 Sudeste 0 1014.4 1.7 70
2020-03-28 20:00:00 15.7 9 Este 19 Sur 0 1013.6 1.5 65
2020-03-28 19:00:00 17.2 6 Sudoeste 23 Sudoeste 0 1013.2 1.1 58
2020-03-28 18:00:00 17.6 12 Sudoeste 27 Sudoeste 0 1012.7 0.6 53
2020-03-28 17:00:00 18 12 Sudoeste 26 Sudoeste 0 1012.1 -0.4 50
2020-03-28 16:00:00 18.2 13 Sudoeste 23 Sudoeste 0 1012.1 -0.5 51
2020-03-28 15:00:00 18.3 12 Sudoeste 27 Sudoeste 0 1012.1 -0.6 52
2020-03-28 14:00:00 18.4 10 Sudoeste 25 Sudoeste 0 1012.5 -0.1 52
2020-03-28 13:00:00 18.1 9 Sudoeste 24 Sur 0 1012.6 0.7 52
2020-03-28 12:00:00 18 8 Sur 20 Sudoeste 0 1012.7 1.2 55
2020-03-28 11:00:00 17.3 6 Sudeste 19 Este 0 1012.6 1.9 58
2020-03-28 10:00:00 16.4 8 Este 16 Sudeste 0 1011.9 2 71
2020-03-28 09:00:00 13.3 8 Este 16 Este 0 1011.5 2.2 85
2020-03-28 08:00:00 11 9 Este 16 Sudeste 0 1010.7 1.7 89
2020-03-28 07:00:00 10.8 7 Este 17 Sudeste 0 1009.9 0.7 89
2020-03-28 06:00:00 10.5 7 Este 14 Sudeste 0 1009.3 0 89
2020-03-28 05:00:00 10.4 7 Este 16 Sudeste 0 1009 -0.5 89
2020-03-28 04:00:00 10.4 8 Sudeste 15 Sudeste 0 1009.2 -0.3 88
2020-03-28 03:00:00 10.7 8 Sudeste 14 Sudeste 0 1009.3 -0.2 87
2020-03-28 02:00:00 11 6 Sudeste 13 Sudeste 0 1009.5 0.4 85
2020-03-28 01:00:00 11.6 6 Sudeste 14 Sudeste 0 1009.5 0.7 85
2020-03-28 00:00:00 11.9 5 Sudeste 10 Sudeste 0 1009.5 1.4 83
2020-03-27 23:00:00 12.7 4 Sudeste 8 Sudeste 0 1009.1 1.8 79
2020-03-27 22:00:00 13.6 0 Calma 5 Sudoeste 0 1008.8 1.6 71
2020-03-27 21:00:00 14.1 4 Oeste 15 Oeste 0 1008.1 1.1 69
2020-03-27 20:00:00 14.3 10 Oeste 19 Oeste 0 1007.3 0.8 69
2020-03-27 19:00:00 15.1 13 Oeste 22 Oeste 0 1007.2 0.6 66
2020-03-27 18:00:00 15.8 12 Oeste 28 Sudoeste 0 1007 0.3 68
2020-03-27 17:00:00 16.4 10 Sudoeste 27 Sudoeste 0 1006.5 -1.1 64
2020-03-27 16:00:00 16.6 11 Sudoeste 26 Sudoeste 0 1006.6 -1.2 62
2020-03-27 15:00:00 16.7 11 Sudoeste 23 Sudoeste 0 1006.7 -1.2 58
2020-03-27 14:00:00 16.1 6 Oeste 15 Noroeste 0 1007.6 -0.4 64
2020-03-27 13:00:00 15.3 7 Noroeste 14 Noroeste 0 1007.8 0.2 70
2020-03-27 12:00:00 14.7 2 Nordeste 13 Noroeste 0 1007.9 0.9 73
2020-03-27 11:00:00 13.2 7 Noroeste 13 Oeste 0 1008 1.2 76
2020-03-27 10:00:00 13.2 5 Noroeste 12 Nordeste 0 1007.6 1.3 77
2020-03-27 09:00:00 13.5 4 Noroeste 15 Noroeste 0 1007 1 76
2020-03-27 08:00:00 13 9 Noroeste 19 Noroeste 0 1006.8 0.8 78
2020-03-27 07:00:00 12.9 7 Noroeste 18 Noroeste 0 1006.3 0.3 80
2020-03-27 06:00:00 13 5 Noroeste 16 Noroeste 0 1006 -0.4 80
2020-03-27 05:00:00 13.6 9 Noroeste 21 Noroeste 0 1006 -1 78
2020-03-27 04:00:00 13.9 12 Noroeste 19 Noroeste 0 1006 -1.3 79
2020-03-27 03:00:00 14.2 12 Noroeste 22 Noroeste 0 1006.4 -1.2 79
2020-03-27 02:00:00 14.5 8 Noroeste 26 Noroeste 0 1007 -0.5 80
2020-03-27 01:00:00 15.5 17 Noroeste 26 Noroeste 0 1007.3 -0.2 74
2020-03-27 00:00:00 15.2 10 Noroeste 18 Oeste 0 1007.6 0.3 89
2020-03-26 23:00:00 15.8 14 Oeste 24 Oeste 0 1007.5 0.4 86
2020-03-26 22:00:00 15.9 19 Oeste 31 Oeste 0 1007.5 0.4 84
2020-03-26 21:00:00 15.9 20 Oeste 27 Oeste 0 1007.3 0.3 82
2020-03-26 20:00:00 15.9 17 Oeste 32 Oeste 0 1007.1 -0.5 80
2020-03-26 19:00:00 17.1 21 Oeste 37 Sudoeste 0 1007.1 -0.9 74
2020-03-26 18:00:00 17.9 22 Oeste 35 Oeste 0 1007 -1.5 65
2020-03-26 17:00:00 18 19 Oeste 32 Oeste 0 1007.6 -1.5 71
2020-03-26 16:00:00 18.1 20 Oeste 33 Oeste 0 1008 -1.6 76
2020-03-26 15:00:00 17 18 Oeste 28 Oeste 0 1008.5 -1.7 76
2020-03-26 14:00:00 16.7 14 Oeste 28 Oeste 0 1009.1 -1.3 73
2020-03-26 13:00:00 17.2 15 Oeste 26 Oeste 0 1009.6 -0.3 61
2020-03-26 12:00:00 16.4 12 Oeste 21 Noroeste 0 1010.2 0.3 70
2020-03-26 11:00:00 16.4 11 Noroeste 24 Oeste 0 1010.4 0.3 82
2020-03-26 10:00:00 16.1 15 Oeste 26 Oeste 0 1009.9 0 85
2020-03-26 09:00:00 13.8 5 Sur 12 Sudeste 0 1009.9 0.1 84
2020-03-26 08:00:00 11.7 8 Sudeste 13 Sudeste 0 1010.1 -0.1 86
2020-03-26 07:00:00 10.9 6 Sudeste 11 Sudeste 0 1009.9 -0.9 86
2020-03-26 06:00:00 10.7 8 Sudeste 13 Sudeste 0 1009.8 -1.6 89
2020-03-26 05:00:00 10.7 5 Este 9 Este 0 1010.2 -1.7 88
2020-03-26 04:00:00 10.9 3 Este 9 Sudeste 0 1010.8 -1.4 85
2020-03-26 03:00:00 11.3 7 Sudeste 15 Sudeste 0 1011.4 -1 84
2020-03-26 02:00:00 11.7 8 Sudeste 15 Sudeste 0 1011.9 -0.8 83
2020-03-26 01:00:00 11.8 9 Sudeste 19 Sudeste 0 1012.2 -0.7 82
2020-03-26 00:00:00 12.2 10 Sudeste 19 Sudeste 0 1012.4 -0.3 80
2020-03-25 23:00:00 12.4 10 Sudeste 19 Sudeste 0 1012.7 0.5 79
2020-03-25 22:00:00 13.1 11 Sudeste 19 Sudeste 0 1012.9 0.9 74
2020-03-25 21:00:00 14.4 8 Sudeste 17 Sudeste 0 1012.7 0.9 71
2020-03-25 20:00:00 15.9 4 Sur 20 Sur 0 1012.2 0.3 68
2020-03-25 19:00:00 17.6 8 Sur 19 Sur 0 1012 -0.1 62
2020-03-25 18:00:00 18.9 6 Sur 16 Sur 0 1011.8 -0.7 56
2020-03-25 17:00:00 19.2 10 Este 21 Este 0 1011.9 -1 52
2020-03-25 16:00:00 19.4 8 Este 21 Sudeste 0 1012.1 -1.2 54
2020-03-25 15:00:00 18.9 9 Sudeste 22 Este 0 1012.5 -0.7 54
2020-03-25 14:00:00 18.8 12 Este 23 Este 0 1012.9 -0.3 55
2020-03-25 13:00:00 18 13 Sudeste 33 Este 0 1013.3 0.5 61
2020-03-25 12:00:00 16.8 14 Este 36 Sudeste 0 1013.2 0.8 62
2020-03-25 11:00:00 15.1 16 Este 34 Sudeste 0 1013.2 1.2 75
2020-03-25 10:00:00 14.7 14 Este 28 Este 0 1012.8 1.4 82
2020-03-25 09:00:00 14.1 9 Este 20 Este 0 1012.4 1.5 85
2020-03-25 08:00:00 13.7 7 Este 15 Este 0 1012 1.4 85
2020-03-25 07:00:00 13.6 8 Este 17 Sudeste 0 1011.4 1 85
2020-03-25 06:00:00 13.4 5 Este 11 Sudeste 0 1010.9 0.5 87
2020-03-25 05:00:00 13.1 5 Este 10 Sudeste 0 1010.6 0.1 87
2020-03-25 04:00:00 12.9 0 Calma 12 Sudeste 0 1010.4 0.1 87
2020-03-25 03:00:00 12.9 6 Sudeste 17 Sudeste 0 1010.4 0.5 87
2020-03-25 02:00:00 12.9 8 Este 16 Sudeste 0 1010.5 0.8 87
2020-03-25 01:00:00 13.2 9 Este 17 Sudeste 0 1010.3 1.4 87
2020-03-25 00:00:00 13.7 8 Este 20 Sudeste 0 1009.9 1.7 86
2020-03-24 23:00:00 13.9 8 Este 19 Sudeste 0 1009.7 2.3 87
2020-03-24 22:00:00 13.8 8 Sudeste 17 Sudeste 0 1008.9 2.1 89
2020-03-24 21:00:00 14.2 5 Sudeste 9 Sudeste 0 1008.2 1.7 89
2020-03-24 20:00:00 14.4 4 Este 8 Este 0 1007.4 1.3 89
2020-03-24 19:00:00 15 2 Este 10 Este 0 1006.8 0.7 90
2020-03-24 18:00:00 14.9 5 Este 11 Este 0 1006.5 0.5 91
2020-03-24 17:00:00 14.6 6 Este 13 Nordeste 0 1006.1 -0.7 92
2020-03-24 16:00:00 14.2 3 Sudeste 12 Este 0.2 1006.1 0.3 92
2020-03-24 15:00:00 13.5 0 Calma 12 Sudeste 0.6 1006 -0.3 92
2020-03-24 14:00:00 13.2 6 Sudeste 15 Sudeste 0.2 1006.8 1.4 92
2020-03-24 13:00:00 12.5 6 Norte 17 Nordeste 0.7 1005.8 0.2 94
2020-03-24 12:00:00 12 9 Nordeste 22 Nordeste 0.2 1006.3 0.3 94
2020-03-24 11:00:00 12.2 8 Noroeste 14 Noroeste 1.2 1005.4 -0.1 94
2020-03-24 10:00:00 11.5 0 Calma 17 Este 3.4 1005.6 0.9 93
2020-03-24 09:00:00 11.2 10 Este 16 Este 1.6 1006 1.6 93
2020-03-24 08:00:00 11.5 9 Este 19 Este 0.2 1005.5 1 90
2020-03-24 07:00:00 11.8 4 Nordeste 18 Nordeste 0.1 1004.7 -0.1 88
2020-03-24 06:00:00 11.7 8 Nordeste 20 Nordeste 0.1 1004.4 -0.9 86
2020-03-24 05:00:00 12.4 8 Nordeste 19 Nordeste 0 1004.5 -1.4 81
2020-03-24 04:00:00 12.7 9 Nordeste 24 Norte 0 1004.8 -1.7 77
2020-03-24 03:00:00 13 10 Nordeste 27 Nordeste 0 1005.3 -1.5 77
2020-03-24 02:00:00 13.4 11 Nordeste 29 Nordeste 0 1005.9 -0.8 73
2020-03-24 01:00:00 13.2 10 Nordeste 23 Nordeste 0 1006.5 -0.2 74
2020-03-24 00:00:00 13.2 10 Nordeste 22 Nordeste 0 1006.8 0.3 76
2020-03-23 23:00:00 13.9 4 Norte 14 Nordeste 0 1006.7 0.6 73
2020-03-23 22:00:00 13.6 9 Este 15 Este 0 1006.7 0.4 67
2020-03-23 21:00:00 13.8 9 Este 23 Sudeste 0 1006.5 0.7 64
2020-03-23 20:00:00 14.8 15 Este 26 Este 0 1006.1 0.1 58
2020-03-23 19:00:00 16.6 12 Este 29 Sudeste 0 1006.3 0.1 56
2020-03-23 18:00:00 18 14 Este 32 Este 0 1005.8 -0.5 54
2020-03-23 17:00:00 16.1 6 Sudeste 20 Sur 0 1006 -1 63
2020-03-23 16:00:00 15.7 5 Sudeste 29 Sudeste 0 1006.2 -1.7 61
2020-03-23 15:00:00 17.9 5 Noroeste 22 Este 0 1006.3 -2.2 47
2020-03-23 14:00:00 17.4 8 Norte 22 Este 0 1007 -1.8 50
2020-03-23 13:00:00 18.1 8 Este 20 Nordeste 0 1007.9 -0.9 50
2020-03-23 12:00:00 17.6 10 Este 23 Nordeste 0 1008.5 -0.1 53
2020-03-23 11:00:00 16.8 13 Este 24 Este 0 1008.8 0.4 58
2020-03-23 10:00:00 14.4 10 Este 19 Este 0 1008.8 0.7 71
2020-03-23 09:00:00 12 10 Este 17 Este 0 1008.6 0.6 86
2020-03-23 08:00:00 9.5 8 Este 13 Este 0 1008.4 0.3 89
2020-03-23 07:00:00 10.2 8 Este 16 Este 0 1008.1 0.1 89
2020-03-23 06:00:00 10.4 7 Este 11 Este 0 1008 -0.4 89
2020-03-23 05:00:00 10.2 6 Este 12 Este 0 1008.1 -0.7 89
2020-03-23 04:00:00 10.1 7 Este 12 Este 0 1008 -1 86
2020-03-23 03:00:00 10.3 8 Este 12 Este 0 1008.4 -0.8 86
2020-03-23 02:00:00 10.9 4 Este 10 Este 0 1008.8 -0.6 85
2020-03-23 01:00:00 11.6 3 Este 7 Sudeste 0 1009 0.1 83
2020-03-23 00:00:00 12.3 3 Este 5 Este 0 1009.2 0.4 77
2020-03-22 23:00:00 12.9 0 Calma 3 Sudeste 0 1009.4 1.2 74
2020-03-22 22:00:00 13.1 0 Calma 4 Oeste 0 1008.9 1 71
2020-03-22 21:00:00 13.5 3 Oeste 6 Oeste 0 1008.8 1.5 69
2020-03-22 20:00:00 14 4 Noroeste 12 Noroeste 0 1008.2 1.1 65
2020-03-22 19:00:00 15.1 8 Noroeste 19 Noroeste 0 1007.9 0.8 62
2020-03-22 18:00:00 15 10 Noroeste 18 Noroeste 0 1007.3 0 62
2020-03-22 17:00:00 14.9 10 Oeste 21 Noroeste 0 1007.1 -0.6 62
2020-03-22 16:00:00 15.6 13 Noroeste 22 Oeste 0 1007.1 -1 61
2020-03-22 15:00:00 15.6 13 Oeste 23 Oeste 0 1007.3 -0.9 58
2020-03-22 14:00:00 15.7 12 Oeste 19 Sudoeste 0 1007.7 -0.4 57
2020-03-22 13:00:00 15.6 7 Oeste 15 Oeste 0 1008.1 0.4 61
2020-03-22 12:00:00 14.4 6 Oeste 11 Noroeste 0 1008.2 1.1 64
2020-03-22 11:00:00 15.1 2 Este 11 Este 0 1008.1 1.4 62
2020-03-22 10:00:00 13.8 5 Este 9 Este 0 1007.7 1.3 85
2020-03-22 09:00:00 11.4 5 Este 8 Este 0 1007.1 1.1 94
2020-03-22 08:00:00 9.6 5 Este 8 Sudeste 0.1 1006.7 0.7 94
2020-03-22 07:00:00 10.1 4 Este 10 Este 0 1006.4 0.2 94
2020-03-22 06:00:00 10.3 6 Este 12 Sudeste 0 1006 -0.5 93
2020-03-22 05:00:00 10.6 5 Este 12 Este 0 1006 -0.8 92
2020-03-22 04:00:00 11 7 Sudeste 13 Sudeste 0.1 1006.2 -1 91
2020-03-22 03:00:00 11.5 5 Este 22 Noroeste 2.3 1006.5 -1.2 86
2020-03-22 02:00:00 12.2 5 Sudoeste 12 Sudoeste 0 1006.8 -1.1 85
2020-03-22 01:00:00 11.9 7 Sudoeste 32 Oeste 0.3 1007.2 -0.9 86
2020-03-22 00:00:00 12.8 15 Oeste 28 Oeste 0.4 1007.7 0 82
2020-03-21 23:00:00 12.3 10 Oeste 29 Oeste 0.1 1007.9 0.4 79
2020-03-21 22:00:00 12.8 7 Sur 34 Oeste 0.6 1008.1 0.8 73
2020-03-21 21:00:00 13.7 15 Oeste 37 Oeste 0 1007.7 0.9 71
2020-03-21 20:00:00 14.2 20 Oeste 32 Oeste 0 1007.5 1.1 67
2020-03-21 19:00:00 14.4 19 Oeste 39 Oeste 0 1007.3 0.7 65
2020-03-21 18:00:00 15.3 25 Oeste 39 Oeste 0 1006.8 0 64
2020-03-21 17:00:00 15.6 26 Oeste 40 Oeste 0.1 1006.4 -1.5 68
2020-03-21 16:00:00 13.3 14 Oeste 41 Sudoeste 2 1006.6 -2.5 80
2020-03-21 15:00:00 14.8 19 Sudoeste 42 Sudoeste 0 1006.8 -3.2 81
2020-03-21 14:00:00 13.1 18 Sudoeste 54 Sudoeste 0.8 1007.9 -2.2 86
2020-03-21 13:00:00 13.1 12 Sudoeste 31 Sur 3.5 1009.1 -1 88
2020-03-21 12:00:00 12.2 7 Sudoeste 39 Oeste 3.7 1010 -0.1 81
2020-03-21 11:00:00 15 13 Sudoeste 32 Sudoeste 0 1010.1 0.3 64
2020-03-21 10:00:00 15.2 10 Sudoeste 22 Sudoeste 0 1010.1 0.5 63
2020-03-21 09:00:00 13.6 7 Sudoeste 20 Sudoeste 0 1010.1 0.6 71
2020-03-21 08:00:00 12.8 12 Oeste 27 Oeste 0 1009.8 0.2 76
2020-03-21 07:00:00 12.6 13 Oeste 26 Oeste 0 1009.6 -0.3 74
2020-03-21 06:00:00 12.1 6 Oeste 17 Oeste 0 1009.5 -0.7 79
2020-03-21 05:00:00 12.2 9 Oeste 31 Oeste 0.8 1009.6 -0.8 71
2020-03-21 04:00:00 12.6 14 Oeste 37 Oeste 0.1 1009.9 -0.4 79
2020-03-21 03:00:00 13.3 9 Oeste 22 Oeste 0 1010.2 -0.7 84
2020-03-21 02:00:00 13.2 8 Oeste 22 Oeste 0 1010.4 0 85
2020-03-21 01:00:00 13.1 14 Oeste 30 Oeste 0 1010.3 1.3 86
2020-03-21 00:00:00 13 20 Oeste 31 Oeste 4.1 1010.9 2.3 90
2020-03-20 23:00:00 13 17 Oeste 31 Sur 3.1 1010.4 2 92
2020-03-20 22:00:00 14.6 14 Sudeste 29 Sudeste 3.1 1009 1.4 92
2020-03-20 21:00:00 14.5 14 Este 38 Sudeste 3.9 1008.6 0.9 90
2020-03-20 20:00:00 14.7 18 Sudeste 41 Sudeste 2.3 1008.4 0.2 86
2020-03-20 19:00:00 16.3 19 Sudeste 45 Sudeste 0 1007.6 -0.7 70
2020-03-20 18:00:00 17 22 Sudeste 48 Sudeste 0 1007.7 -1.1 67
2020-03-20 17:00:00 17.9 19 Este 51 Sudeste 0 1008.2 -1.6 67
2020-03-20 16:00:00 18.7 20 Sudeste 48 Sudeste 0 1008.3 -2.2 63
2020-03-20 15:00:00 18.3 22 Sudeste 52 Sudeste 0 1008.8 -1.9 66
2020-03-20 14:00:00 18.2 26 Este 51 Sudeste 0 1009.8 -0.7 67
2020-03-20 13:00:00 16.9 20 Este 44 Sudeste 0 1010.5 0 73
2020-03-20 12:00:00 17 20 Este 45 Sudeste 0 1010.7 0.9 72
2020-03-20 11:00:00 17.8 20 Este 45 Sudeste 0 1010.5 1.2 73
2020-03-20 10:00:00 15.2 14 Este 31 Este 0.3 1010.5 1.1 86
2020-03-20 09:00:00 14.6 15 Este 36 Este 0 1009.8 0.4 85
2020-03-20 08:00:00 14 15 Este 30 Este 0.1 1009.3 0.5 88
2020-03-20 07:00:00 13.8 10 Este 20 Este 0 1009.4 0.4 89
2020-03-20 06:00:00 14.3 8 Este 28 Este 4.6 1009.4 -0.2 82
2020-03-20 05:00:00 14.5 15 Este 36 Este 0 1008.8 -1.4 76
2020-03-20 04:00:00 14.4 18 Este 37 Este 0 1009 -1.7 74
2020-03-20 03:00:00 14.8 16 Este 37 Este 0 1009.6 -1.8 73
2020-03-20 02:00:00 15 19 Este 44 Este 0 1010.2 -1 67
2020-03-20 01:00:00 15.3 18 Este 35 Sudeste 0 1010.7 -0.3 69
2020-03-20 00:00:00 15.6 18 Este 41 Este 0 1011.4 0.9 69
2020-03-19 23:00:00 15.5 21 Este 44 Este 0 1011.2 1.4 70
2020-03-19 22:00:00 15.6 18 Este 35 Este 0 1011 1.4 70
2020-03-19 21:00:00 15.9 20 Este 56 Este 0 1010.5 0.7 68
2020-03-19 20:00:00 16.1 21 Este 47 Este 0 1009.8 -0.2 67
2020-03-19 19:00:00 16.8 22 Este 54 Este 0 1009.6 -0.5 64
2020-03-19 18:00:00 17.8 22 Este 52 Este 0 1009.8 -1 62
2020-03-19 17:00:00 18.1 26 Este 66 Este 0 1010 -1.6 61
2020-03-19 16:00:00 18.2 32 Este 59 Este 0 1010.1 -1.8 62
2020-03-19 15:00:00 18.8 30 Este 57 Este 0 1010.8 -1.7 62
2020-03-19 14:00:00 18.3 33 Este 59 Este 0 1011.6 -0.9 64
2020-03-19 13:00:00 18 29 Este 61 Este 0 1011.9 -1.3 64
2020-03-19 12:00:00 17.8 31 Este 58 Este 0 1012.5 0.4 63
2020-03-19 11:00:00 18.1 31 Este 62 Sudeste 0 1012.5 0.3 63
2020-03-19 10:00:00 17 20 Este 49 Este 0 1013.2 1.7 67
2020-03-19 09:00:00 16.2 22 Este 50 Este 0 1012.1 1.6 68
2020-03-19 08:00:00 15.7 15 Este 48 Nordeste 0 1012.2 0.5 69
2020-03-19 07:00:00 15.8 24 Este 56 Este 0 1011.5 -1 70
2020-03-19 06:00:00 15.9 28 Este 57 Este 0 1010.5 -3.7 71
2020-03-19 05:00:00 15.8 23 Este 61 Este 0 1011.7 -2.7 74
2020-03-19 04:00:00 16.1 27 Este 59 Este 0 1012.5 -2 71
2020-03-19 03:00:00 16 23 Este 44 Este 0 1014.2 0.1 70
2020-03-19 02:00:00 16.2 24 Este 54 Sudeste 0 1014.4 0.5 67
2020-03-19 01:00:00 16.5 18 Sudeste 44 Sur 0 1014.5 0.5 66
2020-03-19 00:00:00 16.4 22 Este 58 Sudeste 0 1014.1 0.8 65
2020-03-18 23:00:00 16.3 28 Este 57 Sudeste 0 1013.9 1 67
2020-03-18 22:00:00 16.2 24 Este 50 Este 0 1014 1.6 67
2020-03-18 21:00:00 16.3 25 Este 54 Este 0 1013.3 1.4 66
2020-03-18 20:00:00 16.5 24 Este 51 Este 0 1012.9 0.6 62
2020-03-18 19:00:00 17.4 27 Este 60 Este 0 1012.4 0.4 58
2020-03-18 18:00:00 18.5 34 Este 62 Este 0 1011.9 0 55
2020-03-18 17:00:00 19.6 29 Este 64 Este 0 1012.3 0.2 54
2020-03-18 16:00:00 19.4 29 Este 69 Este 0 1012 -0.9 55
2020-03-18 15:00:00 20.3 31 Este 68 Este 0 1011.9 -1.3 53
2020-03-18 14:00:00 20.7 32 Este 68 Este 0 1012.1 -0.5 53
2020-03-18 13:00:00 19.5 36 Este 72 Este 0 1012.9 0.8 57
2020-03-18 12:00:00 18.8 36 Este 94 Este 0 1013.2 1.4 60
2020-03-18 11:00:00 18.2 37 Este 81 Este 0.1 1012.6 0.6 63
2020-03-18 10:00:00 17.3 40 Este 79 Este 0 1012.1 0.1 67
2020-03-18 09:00:00 16.7 35 Este 69 Este 0 1011.8 0 69
2020-03-18 08:00:00 16.1 33 Este 63 Este 0 1012 0.3 71
2020-03-18 07:00:00 15.9 28 Este 51 Este 0 1012 0 71
2020-03-18 06:00:00 15.8 23 Este 61 Este 0 1011.8 -1 73
2020-03-18 05:00:00 15.5 28 Este 59 Este 0 1011.7 -1.6 76
2020-03-18 04:00:00 15.6 27 Este 63 Este 0 1012 -1.8 79
2020-03-18 03:00:00 14.3 16 Este 32 Este 0 1012.8 -1.7 92
2020-03-18 02:00:00 13.3 12 Nordeste 33 Este 0.1 1013.3 -1.8 93
2020-03-18 01:00:00 14 13 Este 22 Este 17.1 1013.8 -0.2 92
2020-03-18 00:00:00 13.9 0 Calma 14 Sur 11.7 1014.5 0.6 89
2020-03-17 23:00:00 14.5 7 Sudeste 30 Sudeste 2.4 1015.1 1.3 81
2020-03-17 22:00:00 15 18 Este 37 Este 0 1014 0.1 67
2020-03-17 21:00:00 15.2 15 Este 42 Este 0 1013.9 0.2 58
2020-03-17 20:00:00 14.9 20 Este 36 Nordeste 0 1013.8 0.2 56
2020-03-17 19:00:00 15.3 19 Este 42 Este 0 1013.9 0.2 59
2020-03-17 18:00:00 15.5 17 Este 36 Nordeste 0 1013.7 0.4 63
2020-03-17 17:00:00 15.4 17 Este 34 Este 0 1013.6 -0.2 60
2020-03-17 16:00:00 15 20 Este 46 Sudeste 0 1013.7 -0.6 63
2020-03-17 15:00:00 16.9 18 Este 48 Sudeste 0.1 1013.3 -1.3 51
2020-03-17 14:00:00 15.4 23 Este 46 Sudeste 0 1013.8 -0.3 56
2020-03-17 13:00:00 13 17 Este 39 Sudeste 0 1014.3 0.4 91
2020-03-17 12:00:00 10 5 Sudeste 29 Sudeste 3.1 1014.6 1.7 94
2020-03-17 11:00:00 9.5 18 Sudeste 40 Sudeste 5.9 1014.1 1.7 94
2020-03-17 10:00:00 8.6 5 Sudeste 20 Este 12.5 1013.9 1.6 94
2020-03-17 09:00:00 8.3 5 Norte 24 Norte 12 1012.9 0.6 93
2020-03-17 08:00:00 9.2 12 Noroeste 24 Noroeste 4.1 1012.4 0.3 87
2020-03-17 07:00:00 8.9 9 Este 18 Este 0.4 1012.3 -0.2 86
2020-03-17 06:00:00 9.2 6 Este 21 Este 0 1012.3 -1.1 82
2020-03-17 05:00:00 8.9 12 Este 21 Este 0.1 1012.1 -1.4 85
2020-03-17 04:00:00 9.5 12 Este 27 Este 0 1012.5 -0.9 80
2020-03-17 03:00:00 9.6 10 Nordeste 25 Nordeste 0 1013.4 -0.2 79
2020-03-17 02:00:00 10.6 13 Nordeste 27 Nordeste 0 1013.5 -0.4 65
2020-03-17 01:00:00 12.2 11 Nordeste 23 Norte 0 1013.4 -0.2 53
2020-03-17 00:00:00 12.6 6 Este 14 Este 0 1013.6 0.6 49
2020-03-16 23:00:00 13.1 6 Este 19 Nordeste 0 1013.9 1.7 47
2020-03-16 22:00:00 14 9 Nordeste 20 Nordeste 0 1013.6 1.7 43
2020-03-16 21:00:00 15 5 Norte 27 Norte 0 1013 1.2 41
2020-03-16 20:00:00 15.9 18 Noroeste 32 Noroeste 0 1012.2 0.3 43
2020-03-16 19:00:00 15.8 18 Oeste 33 Oeste 0 1011.9 -0.2 44
2020-03-16 18:00:00 15.7 21 Oeste 40 Noroeste 0 1011.8 -0.8 44
2020-03-16 17:00:00 16.3 23 Noroeste 41 Oeste 0 1011.9 -1.3 43
2020-03-16 16:00:00 15.5 23 Oeste 42 Oeste 0 1012.1 -1.7 46
2020-03-16 15:00:00 14.7 26 Noroeste 44 Noroeste 0 1012.6 -1.7 46
2020-03-16 14:00:00 14 25 Noroeste 41 Oeste 0 1013.2 -1.1 50
2020-03-16 13:00:00 12.8 21 Noroeste 44 Noroeste 0 1013.8 -0.6 54
2020-03-16 12:00:00 12.1 24 Noroeste 42 Norte 0 1014.3 0.1 53
2020-03-16 11:00:00 12.6 21 Noroeste 37 Noroeste 0 1014.3 0.9 53
2020-03-16 10:00:00 11.3 15 Noroeste 33 Norte 0 1014.4 1.8 55
2020-03-16 09:00:00 10.2 18 Norte 40 Norte 0 1014.2 2.4 54
2020-03-16 08:00:00 10.9 18 Norte 35 Norte 0 1013.4 2.2 50
2020-03-16 07:00:00 11.3 16 Norte 35 Norte 0 1012.6 1.6 50
2020-03-16 06:00:00 12 14 Norte 36 Norte 0 1011.8 0.7 47
2020-03-16 05:00:00 12.9 14 Noroeste 35 Noroeste 0 1011.2 0 50
2020-03-16 04:00:00 13.9 15 Noroeste 36 Noroeste 0 1011 -0.2 52
2020-03-16 03:00:00 14.6 19 Noroeste 36 Noroeste 0 1011.1 -0.7 63
2020-03-16 02:00:00 14.9 16 Noroeste 35 Noroeste 0 1011.2 -0.7 73
2020-03-16 01:00:00 15.2 4 Sudeste 13 Sudeste 0 1011.2 -0.2 79
2020-03-16 00:00:00 15.3 5 Este 15 Este 0 1011.8 0.4 78
2020-03-15 23:00:00 15.2 8 Este 16 Este 0 1011.9 1.1 79
2020-03-15 22:00:00 16 6 Este 14 Norte 0 1011.4 1.3 84
2020-03-15 21:00:00 16.6 8 Noroeste 25 Noroeste 0 1011.4 1.3 82
2020-03-15 20:00:00 16.7 14 Noroeste 24 Noroeste 0 1010.8 0.5 81
2020-03-15 19:00:00 17.3 12 Noroeste 19 Noroeste 0 1010.1 -0.8 76
2020-03-15 18:00:00 18.5 12 Noroeste 19 Norte 0 1010.1 -1.2 73
2020-03-15 17:00:00 18.4 11 Noroeste 24 Noroeste 0 1010.3 -1.5 74
2020-03-15 16:00:00 19.2 14 Oeste 29 Noroeste 0 1010.9 -1.5 68
2020-03-15 15:00:00 19 8 Oeste 26 Este 0 1011.3 -1.6 68
2020-03-15 14:00:00 22.9 12 Este 26 Este 0 1011.8 -1.4 48
2020-03-15 13:00:00 21.8 13 Este 33 Este 0 1012.4 -0.8 54
2020-03-15 12:00:00 20.7 14 Este 30 Este 0 1012.9 0.2 55
2020-03-15 11:00:00 19.8 16 Este 35 Este 0 1013.2 0.8 62
2020-03-15 10:00:00 17.8 16 Este 33 Este 0 1013.2 0.9 68
2020-03-15 09:00:00 15.4 10 Este 19 Este 0 1012.7 0.5 79
2020-03-15 08:00:00 14.1 7 Este 19 Sudeste 0 1012.4 0.1 81
2020-03-15 07:00:00 14.1 10 Este 18 Sudeste 0 1012.3 -0.3 81
2020-03-15 06:00:00 14.1 9 Este 18 Este 0 1012.2 -0.9 81
2020-03-15 05:00:00 14.4 10 Este 19 Sudeste 0 1012.3 -1 81
2020-03-15 04:00:00 14.5 10 Este 26 Sudeste 0 1012.6 -0.9 80
2020-03-15 03:00:00 14.9 15 Este 25 Sudeste 0 1013.1 -1 78
2020-03-15 02:00:00 14.8 12 Este 25 Este 0 1013.3 -0.7 78
2020-03-15 01:00:00 14.9 15 Este 26 Este 0 1013.5 -0.6 77
2020-03-15 00:00:00 15.2 12 Este 23 Este 0 1014.1 0.2 76
2020-03-14 23:00:00 15.3 10 Este 18 Este 0 1014 0.5 77
2020-03-14 22:00:00 15.6 12 Este 18 Este 0 1014.1 0.7 77
2020-03-14 21:00:00 16.2 4 Nordeste 6 Nordeste 0 1013.9 0.3 77
2020-03-14 20:00:00 16.5 3 Oeste 11 Noroeste 0 1013.5 -0.3 75
2020-03-14 19:00:00 17.2 6 Noroeste 16 Oeste 0 1013.4 -0.5 71
2020-03-14 18:00:00 17.8 10 Oeste 19 Oeste 0 1013.6 -1.1 68
2020-03-14 17:00:00 18.9 12 Oeste 21 Oeste 0 1013.8 -1.6 65
2020-03-14 16:00:00 19.8 9 Sudoeste 21 Oeste 0 1013.9 -2.1 62
2020-03-14 15:00:00 18.8 11 Oeste 23 Sudoeste 0 1014.7 -1.6 65
2020-03-14 14:00:00 19.1 10 Oeste 22 Oeste 0 1015.4 -1.2 62
2020-03-14 13:00:00 19 10 Oeste 18 Oeste 0 1016 -0.5 63
2020-03-14 12:00:00 18.8 6 Sudoeste 17 Nordeste 0 1016.3 0.1 63
2020-03-14 11:00:00 18.9 6 Este 14 Este 0 1016.6 0.9 62
2020-03-14 10:00:00 17.3 6 Este 13 Este 0 1016.5 1.2 73
2020-03-14 09:00:00 15.1 4 Sudeste 13 Sudeste 0 1016.2 1.1 85
2020-03-14 08:00:00 14.1 3 Este 5 Sudeste 0 1015.7 0.8 89
2020-03-14 07:00:00 13.5 2 Este 7 Este 0 1015.3 0.2 91
2020-03-14 06:00:00 13.1 4 Este 9 Sur 0 1015.1 -0.2 91
2020-03-14 05:00:00 12.4 5 Este 14 Sudeste 0 1014.9 -0.5 92
2020-03-14 04:00:00 12 6 Sudeste 12 Sudeste 0 1015.1 -0.4 91
2020-03-14 03:00:00 12.1 4 Este 8 Este 0 1015.3 -0.3 90
2020-03-14 02:00:00 12.8 3 Este 7 Sudeste 0 1015.4 0 89
2020-03-14 01:00:00 13.6 2 Este 5 Sudeste 0 1015.5 0.5 88
2020-03-14 00:00:00 14.7 2 Sudoeste 4 Sudoeste 0 1015.6 1 85
2020-03-13 23:00:00 14.9 0 Calma 4 Oeste 0 1015.4 1.1 83
2020-03-13 22:00:00 15.2 3 Oeste 6 Oeste 0 1015 0.9 81
2020-03-13 21:00:00 15.4 5 Oeste 10 Oeste 0 1014.6 0.7 79
2020-03-13 20:00:00 15.8 6 Oeste 14 Oeste 0 1014.3 0.2 74
2020-03-13 19:00:00 17 6 Sudoeste 15 Oeste 0 1014.1 -0.3 68
2020-03-13 18:00:00 17.2 8 Oeste 21 Sudoeste 0 1013.9 -0.8 67
2020-03-13 17:00:00 18.2 7 Sudoeste 24 Oeste 0 1014.1 -1.3 64
2020-03-13 16:00:00 17.5 9 Oeste 22 Sudoeste 0 1014.4 -1.4 64
2020-03-13 15:00:00 18.7 9 Sudoeste 22 Oeste 0 1014.7 -1.3 60
2020-03-13 14:00:00 18.1 8 Oeste 22 Oeste 0 1015.4 -0.6 62
2020-03-13 13:00:00 17.7 9 Oeste 20 Oeste 0 1015.8 0 64
2020-03-13 12:00:00 17 9 Sudoeste 19 Sudoeste 0 1016 0.9 67
2020-03-13 11:00:00 16.6 6 Oeste 17 Oeste 0 1016 1.3 68
2020-03-13 10:00:00 15.9 3 Sudoeste 14 Oeste 0 1015.8 1.4 71
2020-03-13 09:00:00 15.4 4 Sudoeste 16 Sudoeste 0 1015.1 0.8 74
2020-03-13 08:00:00 15.2 4 Sudoeste 10 Sudoeste 0 1014.7 0.5 76
2020-03-13 07:00:00 15 4 Sudoeste 14 Oeste 0 1014.4 0 78
2020-03-13 06:00:00 15 5 Sudoeste 14 Sudoeste 0 1014.3 -0.5 79
2020-03-13 05:00:00 15 8 Oeste 14 Sudoeste 0 1014.2 -1 80
2020-03-13 04:00:00 15.1 7 Oeste 13 Oeste 0 1014.4 -0.6 81
2020-03-13 03:00:00 15.6 6 Oeste 16 Oeste 0 1014.8 -0.6 83
2020-03-13 02:00:00 15.6 7 Sudoeste 14 Oeste 0 1015.2 0.2 88
2020-03-13 01:00:00 16.1 5 Oeste 9 Oeste 0 1015 0 90
2020-03-13 00:00:00 16.1 2 Sur 4 Sur 0 1015.4 0.5 90
2020-03-12 23:00:00 16.3 0 Calma 7 Oeste 0 1015 0.5 90
2020-03-12 22:00:00 16.3 3 Oeste 12 Noroeste 0 1015 0.6 90
2020-03-12 21:00:00 16.3 6 Noroeste 14 Noroeste 0 1014.9 0.6 90
2020-03-12 20:00:00 16.5 7 Oeste 15 Oeste 0 1014.5 0.1 89
2020-03-12 19:00:00 17 9 Oeste 17 Oeste 0 1014.4 -0.5 88
2020-03-12 18:00:00 17.4 8 Oeste 22 Oeste 0 1014.3 -1 85
2020-03-12 17:00:00 18.3 10 Oeste 22 Sudoeste 0 1014.4 -1.8 79
2020-03-12 16:00:00 18.8 13 Oeste 23 Oeste 0 1014.9 -2 73
2020-03-12 15:00:00 18.9 10 Sudoeste 26 Sudoeste 0 1015.3 -1.8 72
2020-03-12 14:00:00 19.3 7 Sudoeste 19 Sudoeste 0 1016.2 -0.9 70
2020-03-12 13:00:00 17.9 7 Sudoeste 22 Sudoeste 0 1016.9 0.2 76
2020-03-12 12:00:00 18.5 9 Sudoeste 17 Sudoeste 0 1017.1 0.8 73
2020-03-12 11:00:00 16.8 7 Sudoeste 17 Sudoeste 0 1017.1 1.6 82
2020-03-12 10:00:00 16 8 Sudoeste 19 Sudoeste 0 1016.7 1.5 90
2020-03-12 09:00:00 15.1 7 Sur 17 Sur 0 1016.3 1.3 93
2020-03-12 08:00:00 14.8 9 Sur 20 Sur 0 1015.5 0.7 93
2020-03-12 07:00:00 15 6 Sur 22 Sudoeste 0 1015.2 0 93
2020-03-12 06:00:00 14.6 6 Sudoeste 18 Sudoeste 0 1015 -0.5 93
2020-03-12 05:00:00 14.4 8 Sudoeste 20 Sudoeste 0 1014.8 -0.8 92
2020-03-12 04:00:00 15.3 9 Sudoeste 22 Sur 0 1015.2 -0.7 88
2020-03-12 03:00:00 17.5 10 Sur 21 Sur 0 1015.5 -0.7 51
2020-03-12 02:00:00 18.3 7 Sudeste 23 Sudeste 0 1015.6 -0.3 44
2020-03-12 01:00:00 18.6 4 Sudeste 17 Sudeste 0 1015.9 0.3 43
2020-03-12 00:00:00 19 6 Sudeste 17 Sudeste 0 1016.2 1.3 42
2020-03-11 23:00:00 19.5 10 Este 20 Sudeste 0 1015.9 0.9 41
2020-03-11 22:00:00 19.8 9 Este 27 Este 0 1015.6 0.8 40
2020-03-11 21:00:00 20.3 15 Este 31 Este 0 1014.9 -0.3 39
2020-03-11 20:00:00 21.8 18 Este 35 Este 0 1015 -0.4 36
2020-03-11 19:00:00 24.1 16 Este 36 Este 0 1014.8 -0.6 34
2020-03-11 18:00:00 26.2 13 Este 26 Este 0 1015.2 -0.8 34
2020-03-11 17:00:00 25.8 13 Este 36 Sudeste 0 1015.4 -1.6 33
2020-03-11 16:00:00 26.7 17 Este 37 Sudeste 0 1015.4 -1.9 33
2020-03-11 15:00:00 27.3 16 Sudeste 37 Sudeste 0 1016 -2.1 32
2020-03-11 14:00:00 27.1 13 Este 33 Este 0 1017 -0.9 33
2020-03-11 13:00:00 25.3 14 Este 35 Este 0 1017.3 -0.9 37
2020-03-11 12:00:00 23.7 14 Este 45 Este 0 1018.1 0.1 39
2020-03-11 11:00:00 21.5 21 Este 49 Este 0 1017.9 -0.2 41
2020-03-11 10:00:00 19.9 23 Este 44 Este 0 1018.2 0.1 41
2020-03-11 09:00:00 17.1 19 Este 31 Este 0 1018 -0.1 45
2020-03-11 08:00:00 15.6 17 Este 31 Sudeste 0 1018.1 -0.2 46
2020-03-11 07:00:00 15.6 16 Este 28 Este 0 1018.1 -0.6 46
2020-03-11 06:00:00 16 18 Este 30 Este 0 1018.1 -0.7 44
2020-03-11 05:00:00 15.8 13 Este 31 Nordeste 0 1018.3 -1.1 44
2020-03-11 04:00:00 16.1 18 Este 32 Este 0 1018.7 -1.2 44
2020-03-11 03:00:00 16.3 18 Este 33 Este 0 1018.8 -1.7 44
2020-03-11 02:00:00 16.8 13 Sudeste 28 Este 0 1019.4 -1 44
2020-03-11 01:00:00 15.7 9 Sudeste 28 Sudeste 0 1019.9 -0.4 48
2020-03-11 00:00:00 16 11 Este 31 Sudeste 0 1020.5 0.6 48
2020-03-10 23:00:00 16.7 14 Este 32 Sudeste 0 1020.4 0.2 44
2020-03-10 22:00:00 17.2 12 Este 30 Sudeste 0 1020.3 0.3 44
2020-03-10 21:00:00 17.8 15 Este 38 Este 0 1019.9 -0.1 44
2020-03-10 20:00:00 18.8 17 Este 35 Sudeste 0 1020.2 0.3 43
2020-03-10 19:00:00 20.8 15 Este 36 Este 0 1020 -0.1 41
2020-03-10 18:00:00 23.4 18 Este 37 Sudeste 0 1020 -0.4 40
2020-03-10 17:00:00 25.7 14 Este 33 Este 0 1019.9 -1.2 36
2020-03-10 16:00:00 26.1 15 Este 33 Este 0 1020.1 -1.7 35
2020-03-10 15:00:00 21.2 7 Oeste 19 Oeste 0 1020.4 -1.8 61
2020-03-10 14:00:00 20.5 10 Oeste 16 Oeste 0 1021.1 -1 69
2020-03-10 13:00:00 19.3 9 Oeste 17 Oeste 0 1021.8 0.1 70
2020-03-10 12:00:00 19.8 8 Oeste 14 Sudoeste 0 1022.2 1.3 57
2020-03-10 11:00:00 19.5 3 Sudeste 10 Este 0 1022.1 2.1 50
2020-03-10 10:00:00 17.2 7 Este 12 Este 0 1021.7 2 52
2020-03-10 09:00:00 13.3 6 Este 18 Este 0 1020.9 1.7 62
2020-03-10 08:00:00 12.7 9 Nordeste 18 Nordeste 0 1020 0.7 63
2020-03-10 07:00:00 13.2 4 Norte 14 Este 0 1019.7 0.1 58
2020-03-10 06:00:00 14 9 Nordeste 18 Nordeste 0 1019.2 -1.2 55
2020-03-10 05:00:00 15.3 4 Nordeste 14 Norte 0 1019.3 -1.5 54
2020-03-10 04:00:00 14.9 5 Norte 19 Nordeste 0 1019.6 -1.6 56
2020-03-10 03:00:00 14.8 9 Nordeste 20 Nordeste 0 1020.4 -1.2 62
2020-03-10 02:00:00 15.3 6 Nordeste 21 Nordeste 0 1020.8 -0.7 60
2020-03-10 01:00:00 16.6 10 Nordeste 22 Norte 0 1021.2 -0.1 53
2020-03-10 00:00:00 15.8 8 Nordeste 18 Nordeste 0 1021.6 0.7 61
2020-03-09 23:00:00 17.3 4 Norte 17 Norte 0 1021.5 0.6 63
2020-03-09 22:00:00 16.8 6 Oeste 15 Noroeste 0 1021.3 0.3 71
2020-03-09 21:00:00 16.5 7 Noroeste 13 Oeste 0 1020.9 0.1 77
2020-03-09 20:00:00 16.1 9 Oeste 17 Oeste 0 1020.9 -0.3 79
2020-03-09 19:00:00 17.2 11 Oeste 24 Noroeste 0 1021 0 72
2020-03-09 18:00:00 19 15 Noroeste 30 Noroeste 0 1020.8 -1.4 56
2020-03-09 17:00:00 17.2 17 Oeste 28 Noroeste 0 1021.2 -1.5 70
2020-03-09 16:00:00 17.7 16 Oeste 27 Oeste 0 1021 -2.5 68
2020-03-09 15:00:00 17.3 15 Oeste 27 Oeste 0 1022.2 -1.7 71
2020-03-09 14:00:00 16.9 18 Oeste 27 Noroeste 0 1022.7 -1 73
2020-03-09 13:00:00 18.9 16 Noroeste 24 Noroeste 0 1023.5 0 55
2020-03-09 12:00:00 18.7 7 Norte 21 Norte 0 1023.9 1.3 55
2020-03-09 11:00:00 16.7 8 Norte 22 Norte 0 1023.7 1.6 59
2020-03-09 10:00:00 15 6 Norte 22 Norte 0 1023.5 1.7 63
2020-03-09 09:00:00 12.3 6 Norte 14 Norte 0 1022.6 1.2 70
2020-03-09 08:00:00 11.5 6 Norte 15 Norte 0 1022.1 0.6 68
2020-03-09 07:00:00 12.1 4 Norte 12 Norte 0 1021.8 -0.1 69
2020-03-09 06:00:00 12.6 4 Nordeste 14 Norte 0 1021.4 -0.6 68
2020-03-09 05:00:00 13.1 6 Norte 18 Norte 0 1021.5 -0.8 66
2020-03-09 04:00:00 13.9 7 Norte 15 Norte 0 1021.9 -0.2 64
2020-03-09 03:00:00 14.1 5 Norte 10 Nordeste 0 1022 -0.4 64
2020-03-09 02:00:00 14.6 3 Norte 14 Norte 0 1022.3 -0.6 65
2020-03-09 01:00:00 15.7 8 Norte 13 Norte 0 1022.1 -0.5 69
2020-03-09 00:00:00 16.1 5 Noroeste 13 Noroeste 0 1022.4 0.2 73
2020-03-08 23:00:00 16.6 8 Noroeste 17 Noroeste 0 1022.9 0.9 68
2020-03-08 22:00:00 16.3 8 Noroeste 14 Noroeste 0 1022.6 1 65
2020-03-08 21:00:00 16.6 6 Noroeste 20 Noroeste 0 1022.2 1 61
2020-03-08 20:00:00 17.8 13 Noroeste 22 Noroeste 0 1022 1.2 51
2020-03-08 19:00:00 18.5 13 Noroeste 24 Noroeste 0 1021.6 0.6 54
2020-03-08 18:00:00 18.7 12 Oeste 22 Noroeste 0 1021.2 -0.4 56
2020-03-08 17:00:00 18.7 13 Oeste 23 Oeste 0 1020.8 -1.5 64
2020-03-08 16:00:00 18.7 11 Oeste 20 Oeste 0 1021 -2.1 59
2020-03-08 15:00:00 19.1 13 Oeste 18 Oeste 0 1021.6 -2 46
2020-03-08 14:00:00 20.2 7 Oeste 13 Noroeste 0 1022.3 -1.1 40
2020-03-08 13:00:00 18.7 6 Noroeste 17 Noroeste 0 1023.1 0.3 40
2020-03-08 12:00:00 18.4 4 Norte 14 Este 0 1023.6 1.7 46
2020-03-08 11:00:00 16.3 4 Norte 10 Nordeste 0 1023.4 1.9 55
2020-03-08 10:00:00 14.8 3 Nordeste 19 Este 0 1022.8 2.1 54
2020-03-08 09:00:00 11 12 Este 18 Este 0 1021.9 1.5 59
2020-03-08 08:00:00 10.1 4 Nordeste 14 Nordeste 0 1021.5 1 59
2020-03-08 07:00:00 10.3 4 Nordeste 12 Nordeste 0 1020.7 0.4 58
2020-03-08 06:00:00 10.6 5 Este 13 Este 0 1020.4 -0.6 60
2020-03-08 05:00:00 10.7 3 Nordeste 18 Este 0 1020.5 -1 59
2020-03-08 04:00:00 11 12 Este 21 Este 0 1020.3 -1.4 53
2020-03-08 03:00:00 12.5 9 Nordeste 16 Nordeste 0 1021 -0.9 47
2020-03-08 02:00:00 13.7 7 Nordeste 16 Este 0 1021.5 -0.5 47
2020-03-08 01:00:00 13.9 6 Nordeste 13 Norte 0 1021.7 0.2 50
2020-03-08 00:00:00 14.3 4 Nordeste 10 Nordeste 0 1021.9 0.6 51
2020-03-07 23:00:00 14.4 0 Calma 13 Este 0 1022 1.1 44
2020-03-07 22:00:00 15.6 9 Este 18 Este 0 1021.5 1.3 38
2020-03-07 21:00:00 17.1 8 Este 18 Norte 0 1021.3 1.9 34
2020-03-07 20:00:00 18.7 8 Nordeste 22 Nordeste 0 1020.9 1.6 31
2020-03-07 19:00:00 20.4 10 Nordeste 25 Norte 0 1020.2 0.6 30
2020-03-07 18:00:00 21.7 9 Nordeste 25 Nordeste 0 1019.4 -0.8 27
2020-03-07 17:00:00 22.4 9 Nordeste 21 Norte 0 1019.3 -1.6 25
2020-03-07 16:00:00 22.1 6 Norte 19 Noroeste 0 1019.6 -2.1 26
2020-03-07 15:00:00 21.4 6 Norte 19 Norte 0 1020.2 -1.9 28
2020-03-07 14:00:00 20.5 6 Noroeste 19 Nordeste 0 1020.9 -1.2 32
2020-03-07 13:00:00 20 9 Este 22 Este 0 1021.7 -0.1 34
2020-03-07 12:00:00 17.4 6 Nordeste 24 Nordeste 0 1022.1 1 42
2020-03-07 11:00:00 15.2 8 Nordeste 27 Nordeste 0 1022.1 1.2 49
2020-03-07 10:00:00 13.2 11 Nordeste 30 Nordeste 0 1021.8 1.1 50
2020-03-07 09:00:00 10.3 11 Nordeste 26 Nordeste 0 1021.1 0.4 60
2020-03-07 08:00:00 8.7 8 Nordeste 18 Nordeste 0 1020.9 0.2 69
2020-03-07 07:00:00 9.2 9 Nordeste 22 Nordeste 0 1020.7 0 68
2020-03-07 06:00:00 9.2 6 Este 21 Norte 0 1020.7 -0.6 67
2020-03-07 05:00:00 10.6 8 Nordeste 20 Nordeste 0 1020.7 -1 64
2020-03-07 04:00:00 12.1 7 Nordeste 20 Nordeste 0 1020.7 -1.2 61
2020-03-07 03:00:00 12 5 Norte 25 Noroeste 0 1021.3 -0.6 60
2020-03-07 02:00:00 13.4 10 Norte 26 Norte 0 1021.7 0.2 59
2020-03-07 01:00:00 14.2 12 Norte 27 Norte 0 1021.9 0.8 59
2020-03-07 00:00:00 14.6 11 Norte 24 Norte 0 1021.9 1.6 58
2020-03-06 23:00:00 15.3 12 Noroeste 27 Noroeste 0 1021.5 1.9 56
2020-03-06 22:00:00 16.3 16 Noroeste 27 Noroeste 0 1021.1 1.7 56
2020-03-06 21:00:00 15.7 14 Oeste 29 Oeste 0 1020.3 1.1 71
2020-03-06 20:00:00 15.6 21 Oeste 32 Oeste 0 1019.6 0.3 65
2020-03-06 19:00:00 16 23 Oeste 36 Oeste 0 1019.4 0 60
2020-03-06 18:00:00 16.7 23 Oeste 38 Oeste 0 1019.2 -1.1 54
2020-03-06 17:00:00 16.6 21 Oeste 40 Oeste 0 1019.3 -1.7 54
2020-03-06 16:00:00 16.4 21 Oeste 38 Oeste 0 1019.4 -1.8 53
2020-03-06 15:00:00 16.4 23 Noroeste 38 Noroeste 0 1020.3 -1.5 54
2020-03-06 14:00:00 15.3 22 Noroeste 39 Noroeste 0 1021 -0.8 60
2020-03-06 13:00:00 15.4 19 Noroeste 37 Noroeste 0 1021.2 -0.6 63
2020-03-06 12:00:00 15.3 25 Noroeste 38 Noroeste 0 1021.8 0.7 64
2020-03-06 11:00:00 15 23 Noroeste 35 Noroeste 0 1021.8 1.4 67
2020-03-06 10:00:00 14.5 21 Noroeste 33 Noroeste 0 1021.8 1.8 70
2020-03-06 09:00:00 13.5 17 Noroeste 29 Noroeste 0 1021.1 1 74
2020-03-06 08:00:00 12 7 Norte 26 Norte 0 1020.4 0.6 79
2020-03-06 07:00:00 12.7 15 Noroeste 29 Noroeste 0 1020 0.3 76
2020-03-06 06:00:00 12.3 11 Norte 33 Noroeste 0 1020.1 0.1 73
2020-03-06 05:00:00 12.8 14 Noroeste 33 Noroeste 0 1019.8 -0.1 71
2020-03-06 04:00:00 13.2 22 Noroeste 39 Noroeste 0 1019.7 0 68
2020-03-06 03:00:00 13.6 20 Noroeste 41 Noroeste 0 1020 0.7 66
2020-03-06 02:00:00 14.1 23 Noroeste 44 Noroeste 0 1019.9 0.7 65
2020-03-06 01:00:00 14.9 20 Noroeste 39 Noroeste 0 1019.7 1.3 64
2020-03-06 00:00:00 15.4 20 Noroeste 46 Noroeste 0 1019.3 1.7 65
2020-03-05 23:00:00 16 26 Noroeste 42 Noroeste 0 1019.2 2 67
2020-03-05 22:00:00 16.7 17 Noroeste 28 Noroeste 0 1018.4 1.8 64
2020-03-05 21:00:00 16 18 Oeste 32 Oeste 0 1017.6 1.5 79
2020-03-05 20:00:00 15.6 17 Oeste 33 Oeste 0 1017.2 1.1 77
2020-03-05 19:00:00 16.3 19 Oeste 35 Oeste 0 1016.6 0.4 71
2020-03-05 18:00:00 17 19 Oeste 30 Oeste 0 1016.1 -0.3 65
2020-03-05 17:00:00 16.4 16 Oeste 30 Oeste 0 1016.1 -0.9 65
2020-03-05 16:00:00 16 18 Oeste 31 Oeste 0 1016.2 -1.3 68
2020-03-05 15:00:00 15.2 19 Oeste 37 Oeste 0 1016.4 -1.4 90
2020-03-05 14:00:00 16.5 17 Oeste 27 Oeste 0 1017 -0.3 73
2020-03-05 13:00:00 17.1 17 Oeste 27 Oeste 0 1017.5 0.3 67
2020-03-05 12:00:00 16.3 14 Oeste 24 Oeste 0 1017.8 1.1 76
2020-03-05 11:00:00 15.9 9 Noroeste 18 Noroeste 0 1017.3 0.9 77
2020-03-05 10:00:00 15.2 10 Noroeste 23 Noroeste 0 1017.2 1.3 83
2020-03-05 09:00:00 14.2 12 Noroeste 31 Noroeste 0 1016.7 1.2 87
2020-03-05 08:00:00 13.8 16 Noroeste 26 Noroeste 0 1016.4 1 90
2020-03-05 07:00:00 14.1 13 Noroeste 19 Noroeste 0 1015.9 -0.2 90
2020-03-05 06:00:00 13.9 8 Noroeste 13 Noroeste 0 1015.5 -1.5 88
2020-03-05 05:00:00 13.9 3 Noroeste 17 Noroeste 0 1015.4 -2 86
2020-03-05 04:00:00 14.7 10 Noroeste 19 Noroeste 0 1016.1 -2 84
2020-03-05 03:00:00 15.5 11 Noroeste 24 Noroeste 0 1017 -1.5 83
2020-03-05 02:00:00 15.9 10 Noroeste 19 Noroeste 0 1017.4 -1.2 85
2020-03-05 01:00:00 15.8 12 Noroeste 20 Oeste 0 1018.1 -0.8 85
2020-03-05 00:00:00 15.9 13 Noroeste 21 Noroeste 0 1018.5 -0.3 83
2020-03-04 23:00:00 15.9 10 Noroeste 21 Oeste 0 1018.6 -0.2 82
2020-03-04 22:00:00 16.1 12 Noroeste 21 Noroeste 0 1018.9 0 81
2020-03-04 21:00:00 16.2 12 Oeste 25 Oeste 0 1018.8 0.2 76
2020-03-04 20:00:00 16.4 14 Oeste 27 Oeste 0 1018.8 0 74
2020-03-04 19:00:00 16.8 16 Oeste 30 Oeste 0 1018.9 -0.4 71
2020-03-04 18:00:00 17.4 19 Oeste 30 Oeste 0 1018.6 -1.2 71
2020-03-04 17:00:00 17.9 19 Oeste 30 Noroeste 0 1018.8 -1.9 68
2020-03-04 16:00:00 17.9 17 Oeste 32 Oeste 0 1019.3 -2.3 70
2020-03-04 15:00:00 17.7 19 Noroeste 30 Oeste 0 1019.8 -2.3 72
2020-03-04 14:00:00 17.9 18 Oeste 29 Oeste 0 1020.7 -1.5 71
2020-03-04 13:00:00 17.1 14 Oeste 25 Noroeste 0 1021.6 -0.3 77
2020-03-04 12:00:00 16.6 12 Oeste 19 Oeste 0 1022.1 0.5 78
2020-03-04 11:00:00 16.4 11 Noroeste 18 Noroeste 0 1022.2 0.9 79
2020-03-04 10:00:00 15.8 12 Noroeste 20 Noroeste 0 1021.9 0.9 85
2020-03-04 09:00:00 15.1 6 Noroeste 19 Noroeste 0 1021.6 0.4 88
2020-03-04 08:00:00 14.9 10 Noroeste 18 Noroeste 0 1021.3 0.2 88
2020-03-04 07:00:00 15 10 Noroeste 18 Noroeste 0 1021 -0.3 87
2020-03-04 06:00:00 15 9 Noroeste 16 Noroeste 0 1021.2 -0.8 87
2020-03-04 05:00:00 15.1 5 Noroeste 14 Noroeste 0 1021.1 -1 86
2020-03-04 04:00:00 15.4 7 Noroeste 17 Noroeste 0 1021.3 -1 88
2020-03-04 03:00:00 15.9 9 Noroeste 16 Oeste 0 1022 -0.5 90
2020-03-04 02:00:00 16.1 9 Oeste 18 Oeste 0 1022.1 -0.4 91
2020-03-04 01:00:00 16.2 10 Oeste 17 Oeste 0 1022.3 0 91
2020-03-04 00:00:00 16.3 9 Oeste 14 Oeste 0 1022.5 0.5 89
2020-03-03 23:00:00 16.3 9 Oeste 15 Oeste 0 1022.5 0.6 86
2020-03-03 22:00:00 16.3 11 Oeste 17 Oeste 0 1022.3 0.8 84
2020-03-03 21:00:00 16.3 14 Oeste 22 Oeste 0 1022 1.1 82
2020-03-03 20:00:00 16.3 14 Oeste 26 Oeste 0 1021.9 0.8 77
2020-03-03 19:00:00 16.8 17 Oeste 31 Oeste 0 1021.5 -0.1 71
2020-03-03 18:00:00 17.4 17 Sudoeste 32 Oeste 0 1020.9 -0.8 66
2020-03-03 17:00:00 17.5 19 Oeste 29 Oeste 0 1021.1 -1.2 64
2020-03-03 16:00:00 16.8 15 Oeste 30 Oeste 0 1021.6 -1.2 66
2020-03-03 15:00:00 17 16 Oeste 26 Oeste 0 1021.7 -1.4 65
2020-03-03 14:00:00 17 12 Oeste 27 Oeste 0 1022.3 -0.8 64
2020-03-03 13:00:00 16.6 12 Sudoeste 23 Oeste 0 1022.8 0.5 63
2020-03-03 12:00:00 15.8 10 Noroeste 16 Oeste 0 1023.1 1.4 65
2020-03-03 11:00:00 15.3 7 Noroeste 10 Noroeste 0 1023.1 2.2 67
2020-03-03 10:00:00 13.5 2 Este 8 Este 0 1022.3 1.7 72
2020-03-03 09:00:00 10.8 6 Este 9 Este 0 1021.7 1.4 77
2020-03-03 08:00:00 11.4 3 Este 6 Nordeste 0 1020.9 1 77
2020-03-03 07:00:00 12 4 Nordeste 6 Nordeste 0 1020.6 1 77
2020-03-03 06:00:00 12 3 Este 6 Nordeste 0 1020.3 -0.3 77
2020-03-03 05:00:00 12.9 2 Norte 9 Norte 0 1019.9 -1.1 76
2020-03-03 04:00:00 13.6 4 Noroeste 17 Norte 0 1019.6 -1.2 72
2020-03-03 03:00:00 13.9 8 Noroeste 19 Noroeste 0 1020.6 -0.2 70
2020-03-03 02:00:00 14.4 9 Noroeste 24 Noroeste 0 1021 0.4 68
2020-03-03 01:00:00 14.8 9 Noroeste 20 Noroeste 0 1020.8 1.1 67
2020-03-03 00:00:00 15.9 13 Noroeste 25 Noroeste 0 1020.8 2 61
2020-03-02 23:00:00 16 12 Oeste 28 Noroeste 0 1020.6 2.3 77
2020-03-02 22:00:00 16.2 19 Oeste 32 Oeste 0 1019.7 2 75
2020-03-02 21:00:00 16.2 19 Oeste 32 Oeste 0 1018.8 1.9 74
2020-03-02 20:00:00 16.3 20 Oeste 33 Oeste 0 1018.3 1.9 71
2020-03-02 19:00:00 16.8 17 Oeste 31 Oeste 0 1017.7 2 69
2020-03-02 18:00:00 17.7 22 Oeste 37 Oeste 0 1016.9 1.1 66
2020-03-02 17:00:00 18.2 26 Oeste 46 Oeste 0 1016.4 0.4 73
2020-03-02 16:00:00 18.4 30 Oeste 44 Oeste 0 1015.7 -0.4 76
2020-03-02 15:00:00 18.6 29 Oeste 46 Oeste 0 1015.8 -0.5 77
2020-03-02 14:00:00 18.5 27 Oeste 45 Oeste 0 1016 0.3 79
2020-03-02 13:00:00 18.4 23 Oeste 42 Oeste 0 1016.1 0.6 81
2020-03-02 12:00:00 18.4 28 Oeste 42 Oeste 0 1016.3 1.5 81
2020-03-02 11:00:00 18 19 Oeste 36 Oeste 0 1015.7 1.9 82
2020-03-02 10:00:00 16.9 23 Oeste 36 Sudoeste 0 1015.5 1.2 88
2020-03-02 09:00:00 16.5 23 Oeste 38 Oeste 0.1 1014.8 1.2 90
2020-03-02 08:00:00 16.6 20 Oeste 41 Oeste 0 1013.8 0.4 87
2020-03-02 07:00:00 16.7 21 Oeste 36 Oeste 0 1014.3 0.5 86
2020-03-02 06:00:00 16.4 24 Oeste 37 Oeste 0 1013.6 -1 88
2020-03-02 05:00:00 16.5 18 Sudoeste 30 Sudoeste 0 1013.4 -1.4 88
2020-03-02 04:00:00 16.5 16 Sudoeste 30 Sudoeste 0 1013.8 -1.9 88
2020-03-02 03:00:00 16.3 15 Sudoeste 33 Sudoeste 0 1014.6 -1 87
2020-03-02 02:00:00 16.4 14 Sudoeste 24 Sudoeste 0 1014.8 -1.1 87
2020-03-02 01:00:00 16.4 12 Sudoeste 24 Sudoeste 0 1015.7 0.1 88
2020-03-02 00:00:00 16.1 13 Sudoeste 23 Sudoeste 0 1015.6 -0.3 87
2020-03-01 23:00:00 16.1 12 Sudoeste 21 Sudoeste 0 1015.9 0.2 85
2020-03-01 22:00:00 16.2 11 Sudoeste 22 Sudoeste 0 1015.6 -0.6 85
2020-03-01 21:00:00 16.3 9 Sudoeste 19 Sudoeste 0 1015.9 -0.5 83
2020-03-01 20:00:00 16.4 11 Sudoeste 21 Sudoeste 0 1015.7 -0.8 81
2020-03-01 19:00:00 17 12 Sudoeste 23 Sudoeste 0 1016.2 0.1 76
2020-03-01 18:00:00 17.7 13 Sudoeste 25 Sudoeste 0 1016.4 -0.6 71
2020-03-01 17:00:00 18.2 12 Sudoeste 31 Sudoeste 0 1016.5 -1 70
2020-03-01 16:00:00 18.5 13 Sudoeste 29 Sudoeste 0 1016.1 -2.8 69
2020-03-01 15:00:00 18.5 12 Sudoeste 24 Sudoeste 0 1017 -2.2 67
2020-03-01 14:00:00 18.3 11 Sudoeste 25 Oeste 0 1017.5 -1.1 68
2020-03-01 13:00:00 18.2 15 Oeste 26 Oeste 0 1018.9 0.7 71
2020-03-01 12:00:00 17.7 15 Oeste 26 Oeste 0 1019.2 1.8 73
2020-03-01 11:00:00 17 11 Oeste 24 Oeste 0 1018.6 1.5 79
2020-03-01 10:00:00 16.5 10 Sudoeste 19 Sudoeste 0 1018.2 1.2 80
2020-03-01 09:00:00 15.4 4 Sudoeste 10 Oeste 0 1017.4 0.7 84
2020-03-01 08:00:00 14.8 7 Oeste 17 Oeste 0 1017.1 0.5 83
2020-03-01 07:00:00 15.2 10 Oeste 19 Oeste 0 1017 0.4 85
2020-03-01 06:00:00 15.1 10 Oeste 20 Oeste 0 1016.7 -0.4 86
2020-03-01 05:00:00 15.3 12 Oeste 23 Noroeste 0 1016.6 -0.1 86
2020-03-01 04:00:00 15.1 11 Oeste 19 Noroeste 0 1016.6 -0.2 88
2020-03-01 03:00:00 15 12 Oeste 21 Oeste 0 1017.1 0.2 94
2020-03-01 02:00:00 15.7 10 Oeste 21 Sudoeste 0 1016.7 -0.1 94
2020-03-01 01:00:00 15.4 13 Sudoeste 22 Sudoeste 0.1 1016.8 -0.2 94
2020-03-01 00:00:00 15.4 6 Oeste 43 Oeste 0.9 1016.9 -0.1 94
2020-02-29 23:00:00 15.7 18 Sudoeste 33 Sudoeste 0.4 1016.8 0 94
2020-02-29 22:00:00 16.1 16 Sudoeste 32 Sudoeste 0 1017 0.6 88
2020-02-29 21:00:00 16.6 14 Sudoeste 27 Sudoeste 0 1017 0.5 79
2020-02-29 20:00:00 16.6 13 Sudoeste 25 Sudoeste 0 1016.8 0.6 77
2020-02-29 19:00:00 16.6 12 Sudoeste 26 Sudoeste 0 1016.4 0 73
2020-02-29 18:00:00 17 13 Sudoeste 27 Sudoeste 0 1016.5 -0.3 71
2020-02-29 17:00:00 17.6 14 Sudoeste 29 Sudoeste 0 1016.2 -1.3 68
2020-02-29 16:00:00 17.6 17 Sudoeste 28 Sudoeste 0 1016.4 -1.4 65
2020-02-29 15:00:00 17.5 13 Oeste 23 Oeste 0 1016.8 -1.7 66
2020-02-29 14:00:00 16.1 6 Noroeste 19 Oeste 0 1017.5 -0.8 71
2020-02-29 13:00:00 16.5 12 Oeste 19 Oeste 0 1017.8 0.1 66
2020-02-29 12:00:00 15.8 0 Calma 10 Norte 0 1018.5 1.5 73
2020-02-29 11:00:00 15.5 3 Noroeste 8 Norte 0 1018.3 1.5 75
2020-02-29 10:00:00 14.8 3 Norte 23 Oeste 0 1017.7 1.4 78
2020-02-29 09:00:00 15.2 10 Oeste 23 Oeste 0 1017 0.9 71
2020-02-29 08:00:00 14.9 14 Oeste 27 Oeste 0 1016.8 0.9 81
2020-02-29 07:00:00 13.5 8 Oeste 19 Oeste 0 1016.3 0.5 94
2020-02-29 06:00:00 12.8 3 Sur 9 Sur 0 1016.1 0.2 94
2020-02-29 05:00:00 13 4 Sur 14 Sudeste 0 1015.9 -0.6 94
2020-02-29 04:00:00 12.2 6 Sudeste 13 Sudeste 0 1015.8 -0.8 93
2020-02-29 03:00:00 12.1 3 Este 8 Sudeste 0 1015.9 -0.8 91
2020-02-29 02:00:00 13.7 2 Sur 8 Sudoeste 0 1016.5 0.2 89
2020-02-29 01:00:00 14.8 5 Oeste 10 Oeste 0 1016.6 0.7 89
2020-02-29 00:00:00 15 7 Oeste 13 Oeste 0 1016.7 1.2 91